sensor_id;sensor_type;location;lat;lon;timestamp;P1;durP1;ratioP1;P2;durP2;ratioP2
11203;SDS011;5659;49.408;11.116;2022-08-03T00:00:04;5.75;;;4.03;;
11203;SDS011;5659;49.408;11.116;2022-08-03T00:02:30;4.25;;;3.60;;
11203;SDS011;5659;49.408;11.116;2022-08-03T00:04:56;4.65;;;3.55;;
11203;SDS011;5659;49.408;11.116;2022-08-03T00:07:22;8.45;;;3.63;;
11203;SDS011;5659;49.408;11.116;2022-08-03T00:09:48;5.32;;;3.58;;
11203;SDS011;5659;49.408;11.116;2022-08-03T00:12:25;10.25;;;3.97;;
11203;SDS011;5659;49.408;11.116;2022-08-03T00:14:51;4.32;;;3.92;;
11203;SDS011;5659;49.408;11.116;2022-08-03T00:17:17;5.25;;;4.05;;
11203;SDS011;5659;49.408;11.116;2022-08-03T00:19:43;5.38;;;4.18;;
11203;SDS011;5659;49.408;11.116;2022-08-03T00:22:10;8.70;;;4.13;;
11203;SDS011;5659;49.408;11.116;2022-08-03T00:24:36;5.28;;;4.00;;
11203;SDS011;5659;49.408;11.116;2022-08-03T00:27:02;6.07;;;4.25;;
11203;SDS011;5659;49.408;11.116;2022-08-03T00:29:28;7.03;;;4.88;;
11203;SDS011;5659;49.408;11.116;2022-08-03T00:31:54;4.75;;;3.97;;
11203;SDS011;5659;49.408;11.116;2022-08-03T00:34:20;8.57;;;4.30;;
11203;SDS011;5659;49.408;11.116;2022-08-03T00:36:46;4.88;;;3.83;;
11203;SDS011;5659;49.408;11.116;2022-08-03T00:39:12;5.57;;;4.20;;
11203;SDS011;5659;49.408;11.116;2022-08-03T00:41:38;8.52;;;4.25;;
11203;SDS011;5659;49.408;11.116;2022-08-03T00:44:04;9.13;;;4.03;;
11203;SDS011;5659;49.408;11.116;2022-08-03T00:46:30;10.05;;;4.60;;
11203;SDS011;5659;49.408;11.116;2022-08-03T00:48:56;7.20;;;5.00;;
11203;SDS011;5659;49.408;11.116;2022-08-03T00:51:22;5.15;;;4.40;;
11203;SDS011;5659;49.408;11.116;2022-08-03T00:53:48;8.25;;;4.80;;
11203;SDS011;5659;49.408;11.116;2022-08-03T00:56:15;7.25;;;4.60;;
11203;SDS011;5659;49.408;11.116;2022-08-03T00:58:42;15.63;;;5.20;;
11203;SDS011;5659;49.408;11.116;2022-08-03T01:01:09;18.02;;;6.00;;
11203;SDS011;5659;49.408;11.116;2022-08-03T01:03:36;10.82;;;5.18;;
11203;SDS011;5659;49.408;11.116;2022-08-03T01:06:15;8.45;;;4.32;;
11203;SDS011;5659;49.408;11.116;2022-08-03T01:08:53;9.20;;;4.90;;
11203;SDS011;5659;49.408;11.116;2022-08-03T01:11:23;12.55;;;4.80;;
11203;SDS011;5659;49.408;11.116;2022-08-03T01:14:03;9.48;;;4.90;;
11203;SDS011;5659;49.408;11.116;2022-08-03T01:16:32;13.82;;;5.68;;
11203;SDS011;5659;49.408;11.116;2022-08-03T01:19:23;8.98;;;4.85;;
11203;SDS011;5659;49.408;11.116;2022-08-03T01:27:09;7.97;;;4.30;;
11203;SDS011;5659;49.408;11.116;2022-08-03T01:29:51;6.82;;;4.45;;
11203;SDS011;5659;49.408;11.116;2022-08-03T01:32:20;5.22;;;4.32;;
11203;SDS011;5659;49.408;11.116;2022-08-03T01:34:49;8.57;;;4.78;;
11203;SDS011;5659;49.408;11.116;2022-08-03T01:37:25;8.75;;;4.90;;
11203;SDS011;5659;49.408;11.116;2022-08-03T01:39:53;7.57;;;4.90;;
11203;SDS011;5659;49.408;11.116;2022-08-03T01:42:20;8.98;;;4.57;;
11203;SDS011;5659;49.408;11.116;2022-08-03T01:44:47;6.05;;;4.68;;
11203;SDS011;5659;49.408;11.116;2022-08-03T01:47:13;8.45;;;4.63;;
11203;SDS011;5659;49.408;11.116;2022-08-03T01:49:42;9.32;;;5.20;;
11203;SDS011;5659;49.408;11.116;2022-08-03T01:52:09;11.00;;;4.93;;
11203;SDS011;5659;49.408;11.116;2022-08-03T01:54:36;12.82;;;5.57;;
11203;SDS011;5659;49.408;11.116;2022-08-03T01:57:05;8.20;;;5.50;;
11203;SDS011;5659;49.408;11.116;2022-08-03T01:59:31;6.47;;;5.00;;
11203;SDS011;5659;49.408;11.116;2022-08-03T02:01:59;9.63;;;5.57;;
11203;SDS011;5659;49.408;11.116;2022-08-03T02:04:26;8.45;;;5.80;;
11203;SDS011;5659;49.408;11.116;2022-08-03T02:06:52;10.57;;;5.25;;
11203;SDS011;5659;49.408;11.116;2022-08-03T02:09:19;8.07;;;5.15;;
11203;SDS011;5659;49.408;11.116;2022-08-03T02:11:46;7.35;;;5.22;;
11203;SDS011;5659;49.408;11.116;2022-08-03T02:14:12;7.00;;;5.40;;
11203;SDS011;5659;49.408;11.116;2022-08-03T02:16:39;9.27;;;5.85;;
11203;SDS011;5659;49.408;11.116;2022-08-03T02:19:05;7.60;;;5.68;;
11203;SDS011;5659;49.408;11.116;2022-08-03T02:21:32;8.07;;;5.50;;
11203;SDS011;5659;49.408;11.116;2022-08-03T02:24:00;8.77;;;5.55;;
11203;SDS011;5659;49.408;11.116;2022-08-03T02:26:28;6.03;;;5.20;;
11203;SDS011;5659;49.408;11.116;2022-08-03T02:28:55;8.85;;;5.75;;
11203;SDS011;5659;49.408;11.116;2022-08-03T02:31:26;8.02;;;5.80;;
11203;SDS011;5659;49.408;11.116;2022-08-03T02:33:54;9.35;;;5.25;;
11203;SDS011;5659;49.408;11.116;2022-08-03T02:36:26;8.63;;;5.78;;
11203;SDS011;5659;49.408;11.116;2022-08-03T02:38:53;8.52;;;6.05;;
11203;SDS011;5659;49.408;11.116;2022-08-03T02:41:21;8.90;;;5.50;;
11203;SDS011;5659;49.408;11.116;2022-08-03T02:43:50;11.93;;;6.82;;
11203;SDS011;5659;49.408;11.116;2022-08-03T02:46:22;7.88;;;6.05;;
11203;SDS011;5659;49.408;11.116;2022-08-03T02:48:49;9.75;;;6.65;;
11203;SDS011;5659;49.408;11.116;2022-08-03T02:51:17;9.80;;;6.22;;
11203;SDS011;5659;49.408;11.116;2022-08-03T02:53:44;7.75;;;5.97;;
11203;SDS011;5659;49.408;11.116;2022-08-03T02:56:10;10.57;;;6.03;;
11203;SDS011;5659;49.408;11.116;2022-08-03T02:58:36;9.63;;;5.97;;
11203;SDS011;5659;49.408;11.116;2022-08-03T03:01:04;7.95;;;5.32;;
11203;SDS011;5659;49.408;11.116;2022-08-03T03:03:30;8.23;;;5.50;;
11203;SDS011;5659;49.408;11.116;2022-08-03T03:05:56;6.80;;;5.28;;
11203;SDS011;5659;49.408;11.116;2022-08-03T03:08:23;7.93;;;5.28;;
11203;SDS011;5659;49.408;11.116;2022-08-03T03:10:50;8.43;;;5.85;;
11203;SDS011;5659;49.408;11.116;2022-08-03T03:13:17;7.28;;;5.68;;
11203;SDS011;5659;49.408;11.116;2022-08-03T03:15:44;7.65;;;6.07;;
11203;SDS011;5659;49.408;11.116;2022-08-03T03:18:10;9.50;;;5.88;;
11203;SDS011;5659;49.408;11.116;2022-08-03T03:20:37;8.50;;;6.15;;
11203;SDS011;5659;49.408;11.116;2022-08-03T03:23:04;6.00;;;5.40;;
11203;SDS011;5659;49.408;11.116;2022-08-03T03:25:31;6.95;;;5.72;;
11203;SDS011;5659;49.408;11.116;2022-08-03T03:27:58;9.68;;;5.60;;
11203;SDS011;5659;49.408;11.116;2022-08-03T03:30:24;6.90;;;6.00;;
11203;SDS011;5659;49.408;11.116;2022-08-03T03:32:50;6.68;;;5.68;;
11203;SDS011;5659;49.408;11.116;2022-08-03T03:35:16;7.90;;;6.45;;
11203;SDS011;5659;49.408;11.116;2022-08-03T03:37:42;7.68;;;6.03;;
11203;SDS011;5659;49.408;11.116;2022-08-03T03:40:09;8.25;;;5.55;;
11203;SDS011;5659;49.408;11.116;2022-08-03T03:42:36;11.40;;;5.38;;
11203;SDS011;5659;49.408;11.116;2022-08-03T03:45:03;6.70;;;6.03;;
11203;SDS011;5659;49.408;11.116;2022-08-03T03:47:29;12.63;;;5.95;;
11203;SDS011;5659;49.408;11.116;2022-08-03T03:49:56;7.63;;;6.43;;
11203;SDS011;5659;49.408;11.116;2022-08-03T03:52:22;12.07;;;6.85;;
11203;SDS011;5659;49.408;11.116;2022-08-03T03:54:48;11.07;;;6.35;;
11203;SDS011;5659;49.408;11.116;2022-08-03T03:57:14;12.18;;;6.25;;
11203;SDS011;5659;49.408;11.116;2022-08-03T03:59:40;12.63;;;6.45;;
11203;SDS011;5659;49.408;11.116;2022-08-03T04:02:07;7.43;;;5.95;;
11203;SDS011;5659;49.408;11.116;2022-08-03T04:04:34;7.85;;;6.03;;
11203;SDS011;5659;49.408;11.116;2022-08-03T04:07:19;8.73;;;6.00;;
11203;SDS011;5659;49.408;11.116;2022-08-03T04:10:04;11.93;;;5.78;;
11203;SDS011;5659;49.408;11.116;2022-08-03T04:12:51;7.10;;;5.82;;
11203;SDS011;5659;49.408;11.116;2022-08-03T04:15:19;7.50;;;6.07;;
11203;SDS011;5659;49.408;11.116;2022-08-03T04:17:46;9.50;;;6.53;;
11203;SDS011;5659;49.408;11.116;2022-08-03T04:20:14;9.20;;;6.28;;
11203;SDS011;5659;49.408;11.116;2022-08-03T04:22:40;9.27;;;6.00;;
11203;SDS011;5659;49.408;11.116;2022-08-03T04:25:08;7.00;;;6.28;;
11203;SDS011;5659;49.408;11.116;2022-08-03T04:27:38;10.00;;;6.82;;
11203;SDS011;5659;49.408;11.116;2022-08-03T04:30:05;7.22;;;6.25;;
11203;SDS011;5659;49.408;11.116;2022-08-03T04:32:31;7.75;;;6.28;;
11203;SDS011;5659;49.408;11.116;2022-08-03T04:34:58;6.97;;;6.25;;
11203;SDS011;5659;49.408;11.116;2022-08-03T04:37:44;9.00;;;6.30;;
11203;SDS011;5659;49.408;11.116;2022-08-03T04:40:31;11.32;;;6.95;;
11203;SDS011;5659;49.408;11.116;2022-08-03T04:42:58;13.60;;;6.25;;
11203;SDS011;5659;49.408;11.116;2022-08-03T04:45:26;10.45;;;6.22;;
11203;SDS011;5659;49.408;11.116;2022-08-03T04:47:52;11.43;;;7.00;;
11203;SDS011;5659;49.408;11.116;2022-08-03T04:50:18;9.52;;;6.47;;
11203;SDS011;5659;49.408;11.116;2022-08-03T04:52:44;7.38;;;6.35;;
11203;SDS011;5659;49.408;11.116;2022-08-03T04:55:10;9.27;;;6.22;;
11203;SDS011;5659;49.408;11.116;2022-08-03T04:57:36;8.45;;;6.22;;
11203;SDS011;5659;49.408;11.116;2022-08-03T05:00:03;9.60;;;5.70;;
11203;SDS011;5659;49.408;11.116;2022-08-03T05:02:30;10.88;;;6.20;;
11203;SDS011;5659;49.408;11.116;2022-08-03T05:04:56;7.20;;;6.38;;
11203;SDS011;5659;49.408;11.116;2022-08-03T05:07:22;7.03;;;6.32;;
11203;SDS011;5659;49.408;11.116;2022-08-03T05:09:48;9.55;;;6.63;;
11203;SDS011;5659;49.408;11.116;2022-08-03T05:12:14;7.28;;;6.07;;
11203;SDS011;5659;49.408;11.116;2022-08-03T05:14:40;11.15;;;6.35;;
11203;SDS011;5659;49.408;11.116;2022-08-03T05:17:07;7.63;;;6.00;;
11203;SDS011;5659;49.408;11.116;2022-08-03T05:19:33;7.82;;;6.10;;
11203;SDS011;5659;49.408;11.116;2022-08-03T05:21:59;6.75;;;5.82;;
11203;SDS011;5659;49.408;11.116;2022-08-03T05:24:25;6.97;;;5.60;;
11203;SDS011;5659;49.408;11.116;2022-08-03T05:26:51;8.23;;;6.55;;
11203;SDS011;5659;49.408;11.116;2022-08-03T05:29:17;7.75;;;5.72;;
11203;SDS011;5659;49.408;11.116;2022-08-03T05:31:43;6.75;;;5.80;;
11203;SDS011;5659;49.408;11.116;2022-08-03T05:34:09;18.20;;;5.88;;
11203;SDS011;5659;49.408;11.116;2022-08-03T05:36:35;9.82;;;5.80;;
11203;SDS011;5659;49.408;11.116;2022-08-03T05:39:01;6.47;;;5.78;;
11203;SDS011;5659;49.408;11.116;2022-08-03T05:41:27;8.10;;;5.43;;
11203;SDS011;5659;49.408;11.116;2022-08-03T05:43:54;11.10;;;5.45;;
11203;SDS011;5659;49.408;11.116;2022-08-03T05:46:21;7.32;;;5.40;;
11203;SDS011;5659;49.408;11.116;2022-08-03T05:48:47;11.57;;;5.22;;
11203;SDS011;5659;49.408;11.116;2022-08-03T05:51:13;8.27;;;4.90;;
11203;SDS011;5659;49.408;11.116;2022-08-03T05:53:40;5.70;;;4.95;;
11203;SDS011;5659;49.408;11.116;2022-08-03T05:56:06;9.45;;;4.90;;
11203;SDS011;5659;49.408;11.116;2022-08-03T05:58:32;7.00;;;5.18;;
11203;SDS011;5659;49.408;11.116;2022-08-03T06:00:57;8.13;;;4.85;;
11203;SDS011;5659;49.408;11.116;2022-08-03T06:03:24;8.00;;;4.80;;
11203;SDS011;5659;49.408;11.116;2022-08-03T06:05:49;4.63;;;4.22;;
11203;SDS011;5659;49.408;11.116;2022-08-03T06:08:15;5.45;;;4.40;;
11203;SDS011;5659;49.408;11.116;2022-08-03T06:10:41;4.38;;;3.97;;
11203;SDS011;5659;49.408;11.116;2022-08-03T06:13:07;5.15;;;4.00;;
11203;SDS011;5659;49.408;11.116;2022-08-03T06:15:33;4.93;;;3.53;;
11203;SDS011;5659;49.408;11.116;2022-08-03T06:18:00;9.18;;;3.83;;
11203;SDS011;5659;49.408;11.116;2022-08-03T06:20:26;4.93;;;3.70;;
11203;SDS011;5659;49.408;11.116;2022-08-03T06:22:52;3.92;;;3.60;;
11203;SDS011;5659;49.408;11.116;2022-08-03T06:25:18;4.38;;;3.72;;
11203;SDS011;5659;49.408;11.116;2022-08-03T06:27:44;3.55;;;3.25;;
11203;SDS011;5659;49.408;11.116;2022-08-03T06:30:11;4.95;;;3.38;;
11203;SDS011;5659;49.408;11.116;2022-08-03T06:32:37;4.63;;;3.20;;
11203;SDS011;5659;49.408;11.116;2022-08-03T06:35:04;6.22;;;3.10;;
11203;SDS011;5659;49.408;11.116;2022-08-03T06:37:30;7.00;;;3.42;;
11203;SDS011;5659;49.408;11.116;2022-08-03T06:39:56;5.43;;;3.15;;
11203;SDS011;5659;49.408;11.116;2022-08-03T06:42:22;3.50;;;3.10;;
11203;SDS011;5659;49.408;11.116;2022-08-03T06:44:48;6.03;;;3.15;;
11203;SDS011;5659;49.408;11.116;2022-08-03T06:47:15;3.97;;;3.10;;
11203;SDS011;5659;49.408;11.116;2022-08-03T06:49:41;6.45;;;3.13;;
11203;SDS011;5659;49.408;11.116;2022-08-03T06:52:07;6.90;;;2.83;;
11203;SDS011;5659;49.408;11.116;2022-08-03T06:54:33;5.70;;;3.00;;
11203;SDS011;5659;49.408;11.116;2022-08-03T06:56:59;3.33;;;2.47;;
11203;SDS011;5659;49.408;11.116;2022-08-03T06:59:25;7.00;;;2.85;;
11203;SDS011;5659;49.408;11.116;2022-08-03T07:01:51;6.20;;;2.80;;
11203;SDS011;5659;49.408;11.116;2022-08-03T07:04:17;3.45;;;2.60;;
11203;SDS011;5659;49.408;11.116;2022-08-03T07:06:50;3.30;;;2.60;;
11203;SDS011;5659;49.408;11.116;2022-08-03T07:09:16;3.63;;;2.60;;
11203;SDS011;5659;49.408;11.116;2022-08-03T07:11:42;5.65;;;2.60;;
11203;SDS011;5659;49.408;11.116;2022-08-03T07:14:08;7.90;;;2.83;;
11203;SDS011;5659;49.408;11.116;2022-08-03T07:16:34;2.95;;;2.50;;
11203;SDS011;5659;49.408;11.116;2022-08-03T07:19:00;8.07;;;2.63;;
11203;SDS011;5659;49.408;11.116;2022-08-03T07:21:26;6.00;;;2.50;;
11203;SDS011;5659;49.408;11.116;2022-08-03T07:23:52;4.25;;;2.67;;
11203;SDS011;5659;49.408;11.116;2022-08-03T07:26:18;3.78;;;2.70;;
11203;SDS011;5659;49.408;11.116;2022-08-03T07:28:44;5.53;;;2.75;;
11203;SDS011;5659;49.408;11.116;2022-08-03T07:31:10;7.95;;;2.70;;
11203;SDS011;5659;49.408;11.116;2022-08-03T07:33:36;5.25;;;2.90;;
11203;SDS011;5659;49.408;11.116;2022-08-03T07:36:02;5.57;;;2.60;;
11203;SDS011;5659;49.408;11.116;2022-08-03T07:38:28;3.53;;;2.90;;
11203;SDS011;5659;49.408;11.116;2022-08-03T07:40:54;5.60;;;2.85;;
11203;SDS011;5659;49.408;11.116;2022-08-03T07:43:20;5.97;;;2.80;;
11203;SDS011;5659;49.408;11.116;2022-08-03T07:45:46;8.27;;;2.92;;
11203;SDS011;5659;49.408;11.116;2022-08-03T07:48:12;13.65;;;2.78;;
11203;SDS011;5659;49.408;11.116;2022-08-03T07:50:39;5.45;;;2.85;;
11203;SDS011;5659;49.408;11.116;2022-08-03T07:53:05;4.07;;;2.60;;
11203;SDS011;5659;49.408;11.116;2022-08-03T07:55:31;8.15;;;2.58;;
11203;SDS011;5659;49.408;11.116;2022-08-03T08:00:26;5.75;;;2.72;;
11203;SDS011;5659;49.408;11.116;2022-08-03T08:02:52;4.60;;;2.58;;
11203;SDS011;5659;49.408;11.116;2022-08-03T08:05:18;5.72;;;2.45;;
11203;SDS011;5659;49.408;11.116;2022-08-03T08:07:44;3.50;;;2.28;;
11203;SDS011;5659;49.408;11.116;2022-08-03T08:10:10;5.70;;;2.55;;
11203;SDS011;5659;49.408;11.116;2022-08-03T08:12:36;3.67;;;2.47;;
11203;SDS011;5659;49.408;11.116;2022-08-03T08:15:03;6.57;;;3.13;;
11203;SDS011;5659;49.408;11.116;2022-08-03T08:17:29;5.50;;;2.88;;
11203;SDS011;5659;49.408;11.116;2022-08-03T08:19:55;6.35;;;2.42;;
11203;SDS011;5659;49.408;11.116;2022-08-03T08:22:21;3.55;;;2.40;;
11203;SDS011;5659;49.408;11.116;2022-08-03T08:24:47;3.38;;;2.47;;
11203;SDS011;5659;49.408;11.116;2022-08-03T08:27:14;6.35;;;2.95;;
11203;SDS011;5659;49.408;11.116;2022-08-03T08:29:40;3.50;;;2.78;;
11203;SDS011;5659;49.408;11.116;2022-08-03T08:32:06;2.83;;;2.47;;
11203;SDS011;5659;49.408;11.116;2022-08-03T08:34:32;4.07;;;2.58;;
11203;SDS011;5659;49.408;11.116;2022-08-03T08:36:58;2.50;;;2.10;;
11203;SDS011;5659;49.408;11.116;2022-08-03T08:39:25;4.72;;;2.50;;
11203;SDS011;5659;49.408;11.116;2022-08-03T08:41:51;11.32;;;2.30;;
11203;SDS011;5659;49.408;11.116;2022-08-03T08:44:17;4.60;;;2.30;;
11203;SDS011;5659;49.408;11.116;2022-08-03T08:46:43;4.80;;;2.35;;
11203;SDS011;5659;49.408;11.116;2022-08-03T08:49:09;4.93;;;2.45;;
11203;SDS011;5659;49.408;11.116;2022-08-03T08:51:36;7.82;;;2.50;;
11203;SDS011;5659;49.408;11.116;2022-08-03T08:54:06;3.85;;;2.08;;
11203;SDS011;5659;49.408;11.116;2022-08-03T08:56:33;4.43;;;2.53;;
11203;SDS011;5659;49.408;11.116;2022-08-03T08:59:01;2.35;;;2.15;;
11203;SDS011;5659;49.408;11.116;2022-08-03T09:01:27;3.92;;;2.10;;
11203;SDS011;5659;49.408;11.116;2022-08-03T09:03:53;3.85;;;2.40;;
11203;SDS011;5659;49.408;11.116;2022-08-03T09:06:20;2.75;;;2.13;;
11203;SDS011;5659;49.408;11.116;2022-08-03T09:08:46;9.15;;;2.10;;
11203;SDS011;5659;49.408;11.116;2022-08-03T09:11:12;2.70;;;2.03;;
11203;SDS011;5659;49.408;11.116;2022-08-03T09:13:38;2.90;;;1.75;;
11203;SDS011;5659;49.408;11.116;2022-08-03T09:16:10;2.90;;;2.13;;
11203;SDS011;5659;49.408;11.116;2022-08-03T09:18:37;4.28;;;2.20;;
11203;SDS011;5659;49.408;11.116;2022-08-03T09:21:12;4.13;;;2.35;;
11203;SDS011;5659;49.408;11.116;2022-08-03T09:23:43;2.92;;;2.08;;
11203;SDS011;5659;49.408;11.116;2022-08-03T09:26:09;2.47;;;1.80;;
11203;SDS011;5659;49.408;11.116;2022-08-03T09:28:35;3.83;;;2.03;;
11203;SDS011;5659;49.408;11.116;2022-08-03T09:31:02;2.85;;;1.73;;
11203;SDS011;5659;49.408;11.116;2022-08-03T09:33:28;4.07;;;1.90;;
11203;SDS011;5659;49.408;11.116;2022-08-03T09:35:54;5.65;;;2.10;;
11203;SDS011;5659;49.408;11.116;2022-08-03T09:38:21;3.10;;;1.80;;
11203;SDS011;5659;49.408;11.116;2022-08-03T09:40:51;5.95;;;2.05;;
11203;SDS011;5659;49.408;11.116;2022-08-03T09:43:18;9.35;;;2.10;;
11203;SDS011;5659;49.408;11.116;2022-08-03T09:45:44;3.65;;;1.85;;
11203;SDS011;5659;49.408;11.116;2022-08-03T09:48:23;5.43;;;2.20;;
11203;SDS011;5659;49.408;11.116;2022-08-03T09:50:53;3.70;;;1.65;;
11203;SDS011;5659;49.408;11.116;2022-08-03T09:53:20;2.28;;;1.90;;
11203;SDS011;5659;49.408;11.116;2022-08-03T09:55:54;1.95;;;1.83;;
11203;SDS011;5659;49.408;11.116;2022-08-03T09:58:21;2.38;;;1.80;;
11203;SDS011;5659;49.408;11.116;2022-08-03T10:03:22;2.47;;;1.80;;
11203;SDS011;5659;49.408;11.116;2022-08-03T10:05:49;4.63;;;1.77;;
11203;SDS011;5659;49.408;11.116;2022-08-03T10:08:15;3.47;;;1.80;;
11203;SDS011;5659;49.408;11.116;2022-08-03T10:10:42;4.78;;;1.55;;
11203;SDS011;5659;49.408;11.116;2022-08-03T10:13:17;5.75;;;1.75;;
11203;SDS011;5659;49.408;11.116;2022-08-03T10:15:44;2.22;;;1.70;;
11203;SDS011;5659;49.408;11.116;2022-08-03T10:18:10;3.00;;;1.50;;
11203;SDS011;5659;49.408;11.116;2022-08-03T10:20:38;3.03;;;1.40;;
11203;SDS011;5659;49.408;11.116;2022-08-03T10:23:06;1.50;;;1.35;;
11203;SDS011;5659;49.408;11.116;2022-08-03T10:25:33;3.45;;;1.42;;
11203;SDS011;5659;49.408;11.116;2022-08-03T10:28:01;3.08;;;1.40;;
11203;SDS011;5659;49.408;11.116;2022-08-03T10:30:28;2.83;;;1.55;;
11203;SDS011;5659;49.408;11.116;2022-08-03T10:32:58;4.32;;;1.55;;
11203;SDS011;5659;49.408;11.116;2022-08-03T10:35:27;3.45;;;1.25;;
11203;SDS011;5659;49.408;11.116;2022-08-03T10:38:01;2.05;;;1.38;;
11203;SDS011;5659;49.408;11.116;2022-08-03T10:40:29;5.47;;;1.30;;
11203;SDS011;5659;49.408;11.116;2022-08-03T10:42:58;2.80;;;1.20;;
11203;SDS011;5659;49.408;11.116;2022-08-03T10:45:25;1.95;;;1.20;;
11203;SDS011;5659;49.408;11.116;2022-08-03T10:47:52;1.20;;;1.10;;
11203;SDS011;5659;49.408;11.116;2022-08-03T10:50:20;1.20;;;1.10;;
11203;SDS011;5659;49.408;11.116;2022-08-03T10:52:57;2.08;;;1.13;;
11203;SDS011;5659;49.408;11.116;2022-08-03T10:55:43;1.40;;;1.20;;
11203;SDS011;5659;49.408;11.116;2022-08-03T11:01:03;3.63;;;1.30;;
11203;SDS011;5659;49.408;11.116;2022-08-03T11:03:30;4.28;;;1.23;;
11203;SDS011;5659;49.408;11.116;2022-08-03T11:06:15;1.25;;;1.15;;
11203;SDS011;5659;49.408;11.116;2022-08-03T11:08:48;1.95;;;1.58;;
11203;SDS011;5659;49.408;11.116;2022-08-03T11:14:00;3.28;;;1.20;;
11203;SDS011;5659;49.408;11.116;2022-08-03T11:17:04;1.95;;;1.10;;
11203;SDS011;5659;49.408;11.116;2022-08-03T11:19:20;1.85;;;1.27;;
11203;SDS011;5659;49.408;11.116;2022-08-03T11:21:52;2.60;;;1.40;;
11203;SDS011;5659;49.408;11.116;2022-08-03T11:48:21;3.00;;;1.60;;
11203;SDS011;5659;49.408;11.116;2022-08-03T11:50:47;1.73;;;1.35;;
11203;SDS011;5659;49.408;11.116;2022-08-03T11:53:15;1.35;;;1.25;;
11203;SDS011;5659;49.408;11.116;2022-08-03T11:55:42;4.22;;;1.40;;
11203;SDS011;5659;49.408;11.116;2022-08-03T11:58:17;3.90;;;1.33;;
11203;SDS011;5659;49.408;11.116;2022-08-03T12:00:43;1.58;;;1.30;;
11203;SDS011;5659;49.408;11.116;2022-08-03T12:03:10;1.15;;;1.05;;
11203;SDS011;5659;49.408;11.116;2022-08-03T12:08:03;2.88;;;1.10;;
11203;SDS011;5659;49.408;11.116;2022-08-03T12:10:30;1.10;;;1.10;;
11203;SDS011;5659;49.408;11.116;2022-08-03T12:12:56;2.08;;;1.25;;
11203;SDS011;5659;49.408;11.116;2022-08-03T12:15:26;2.83;;;1.20;;
11203;SDS011;5659;49.408;11.116;2022-08-03T12:17:52;1.92;;;1.20;;
11203;SDS011;5659;49.408;11.116;2022-08-03T12:20:23;1.65;;;1.30;;
11203;SDS011;5659;49.408;11.116;2022-08-03T12:22:49;3.58;;;1.27;;
11203;SDS011;5659;49.408;11.116;2022-08-03T12:25:22;2.47;;;1.23;;
11203;SDS011;5659;49.408;11.116;2022-08-03T12:27:49;3.40;;;1.40;;
11203;SDS011;5659;49.408;11.116;2022-08-03T12:30:15;1.58;;;1.30;;
11203;SDS011;5659;49.408;11.116;2022-08-03T12:32:41;1.30;;;1.20;;
11203;SDS011;5659;49.408;11.116;2022-08-03T12:35:08;3.88;;;1.35;;
11203;SDS011;5659;49.408;11.116;2022-08-03T12:37:34;4.65;;;1.52;;
11203;SDS011;5659;49.408;11.116;2022-08-03T12:40:01;6.95;;;1.38;;
11203;SDS011;5659;49.408;11.116;2022-08-03T12:42:29;1.25;;;1.15;;
11203;SDS011;5659;49.408;11.116;2022-08-03T12:44:55;1.88;;;1.60;;
11203;SDS011;5659;49.408;11.116;2022-08-03T12:47:21;2.85;;;1.38;;
11203;SDS011;5659;49.408;11.116;2022-08-03T12:49:48;2.20;;;1.40;;
11203;SDS011;5659;49.408;11.116;2022-08-03T12:52:15;2.15;;;1.40;;
11203;SDS011;5659;49.408;11.116;2022-08-03T12:54:41;3.15;;;1.20;;
11203;SDS011;5659;49.408;11.116;2022-08-03T12:57:09;4.93;;;1.60;;
11203;SDS011;5659;49.408;11.116;2022-08-03T13:02:04;3.35;;;1.30;;
11203;SDS011;5659;49.408;11.116;2022-08-03T13:04:31;2.35;;;1.33;;
11203;SDS011;5659;49.408;11.116;2022-08-03T13:09:23;1.52;;;1.20;;
11203;SDS011;5659;49.408;11.116;2022-08-03T13:12:13;4.55;;;1.52;;
11203;SDS011;5659;49.408;11.116;2022-08-03T13:14:39;1.40;;;1.30;;
11203;SDS011;5659;49.408;11.116;2022-08-03T13:17:05;1.90;;;1.35;;
11203;SDS011;5659;49.408;11.116;2022-08-03T13:19:32;1.88;;;1.40;;
11203;SDS011;5659;49.408;11.116;2022-08-03T13:21:58;2.08;;;1.10;;
11203;SDS011;5659;49.408;11.116;2022-08-03T13:24:26;1.30;;;1.20;;
11203;SDS011;5659;49.408;11.116;2022-08-03T13:26:52;1.67;;;1.23;;
11203;SDS011;5659;49.408;11.116;2022-08-03T13:29:18;3.85;;;1.50;;
11203;SDS011;5659;49.408;11.116;2022-08-03T13:31:44;1.90;;;1.42;;
11203;SDS011;5659;49.408;11.116;2022-08-03T13:34:10;1.85;;;1.30;;
11203;SDS011;5659;49.408;11.116;2022-08-03T13:36:36;3.13;;;1.52;;
11203;SDS011;5659;49.408;11.116;2022-08-03T13:39:02;2.38;;;1.40;;
11203;SDS011;5659;49.408;11.116;2022-08-03T13:41:28;3.42;;;1.85;;
11203;SDS011;5659;49.408;11.116;2022-08-03T13:43:54;2.58;;;1.50;;
11203;SDS011;5659;49.408;11.116;2022-08-03T13:46:20;3.55;;;1.50;;
11203;SDS011;5659;49.408;11.116;2022-08-03T13:48:46;2.67;;;1.50;;
11203;SDS011;5659;49.408;11.116;2022-08-03T13:51:12;3.35;;;1.55;;
11203;SDS011;5659;49.408;11.116;2022-08-03T13:53:38;1.92;;;1.40;;
11203;SDS011;5659;49.408;11.116;2022-08-03T13:56:04;3.45;;;1.50;;
11203;SDS011;5659;49.408;11.116;2022-08-03T13:58:30;2.08;;;1.25;;
11203;SDS011;5659;49.408;11.116;2022-08-03T14:00:56;3.42;;;1.40;;
11203;SDS011;5659;49.408;11.116;2022-08-03T14:03:22;1.65;;;1.20;;
11203;SDS011;5659;49.408;11.116;2022-08-03T14:05:48;2.10;;;1.20;;
11203;SDS011;5659;49.408;11.116;2022-08-03T14:08:14;2.72;;;1.30;;
11203;SDS011;5659;49.408;11.116;2022-08-03T14:10:41;2.78;;;1.40;;
11203;SDS011;5659;49.408;11.116;2022-08-03T14:13:09;2.65;;;1.40;;
11203;SDS011;5659;49.408;11.116;2022-08-03T14:15:35;1.63;;;1.52;;
11203;SDS011;5659;49.408;11.116;2022-08-03T14:18:01;1.67;;;1.48;;
11203;SDS011;5659;49.408;11.116;2022-08-03T14:20:28;3.17;;;1.50;;
11203;SDS011;5659;49.408;11.116;2022-08-03T14:22:54;1.70;;;1.60;;
11203;SDS011;5659;49.408;11.116;2022-08-03T14:25:20;2.25;;;1.60;;
11203;SDS011;5659;49.408;11.116;2022-08-03T14:27:46;2.00;;;1.60;;
11203;SDS011;5659;49.408;11.116;2022-08-03T14:30:12;4.25;;;1.70;;
11203;SDS011;5659;49.408;11.116;2022-08-03T14:32:38;1.50;;;1.40;;
11203;SDS011;5659;49.408;11.116;2022-08-03T14:35:05;3.33;;;1.60;;
11203;SDS011;5659;49.408;11.116;2022-08-03T14:37:31;1.55;;;1.33;;
11203;SDS011;5659;49.408;11.116;2022-08-03T14:39:57;2.08;;;1.35;;
11203;SDS011;5659;49.408;11.116;2022-08-03T14:42:23;4.20;;;1.45;;
11203;SDS011;5659;49.408;11.116;2022-08-03T14:44:49;2.42;;;1.40;;
11203;SDS011;5659;49.408;11.116;2022-08-03T14:47:15;3.55;;;1.17;;
11203;SDS011;5659;49.408;11.116;2022-08-03T14:49:41;4.15;;;1.40;;
11203;SDS011;5659;49.408;11.116;2022-08-03T14:52:08;1.65;;;1.20;;
11203;SDS011;5659;49.408;11.116;2022-08-03T14:54:34;1.88;;;1.30;;
11203;SDS011;5659;49.408;11.116;2022-08-03T14:57:00;2.63;;;1.20;;
11203;SDS011;5659;49.408;11.116;2022-08-03T14:59:26;1.25;;;1.15;;
11203;SDS011;5659;49.408;11.116;2022-08-03T15:01:52;2.05;;;1.30;;
11203;SDS011;5659;49.408;11.116;2022-08-03T15:04:19;4.68;;;1.63;;
11203;SDS011;5659;49.408;11.116;2022-08-03T15:06:45;3.33;;;1.30;;
11203;SDS011;5659;49.408;11.116;2022-08-03T15:09:11;3.58;;;1.13;;
11203;SDS011;5659;49.408;11.116;2022-08-03T15:11:37;4.93;;;1.50;;
11203;SDS011;5659;49.408;11.116;2022-08-03T15:14:03;3.90;;;1.50;;
11203;SDS011;5659;49.408;11.116;2022-08-03T15:16:29;2.45;;;1.30;;
11203;SDS011;5659;49.408;11.116;2022-08-03T15:18:55;1.35;;;1.25;;
11203;SDS011;5659;49.408;11.116;2022-08-03T15:21:22;4.13;;;1.60;;
11203;SDS011;5659;49.408;11.116;2022-08-03T15:23:47;2.17;;;1.55;;
11203;SDS011;5659;49.408;11.116;2022-08-03T15:26:13;2.50;;;1.50;;
11203;SDS011;5659;49.408;11.116;2022-08-03T15:28:39;4.53;;;1.20;;
11203;SDS011;5659;49.408;11.116;2022-08-03T15:31:05;3.28;;;1.10;;
11203;SDS011;5659;49.408;11.116;2022-08-03T15:33:31;1.33;;;1.23;;